Time;durP1;ratioP1;P1;durP2;ratioP2;P2;SDS_P1;SDS_P2;PMS_P1;PMS_P2;Temp;Humidity;BMP_temperature;BMP_pressure;BME280_temperature;BME280_humidity;BME280_pressure;Samples;Min_cycle;Max_cycle;Signal;HPM_P1;HPM_P2
2022/09/18 00:01:00;;;;;;;11.27;2.53;;;9.40;99.90;;;;;;5018047;28;20089;-74
2022/09/18 00:03:29;;;;;;;11.50;2.50;;;9.40;99.90;;;;;;5018015;28;20049;-74
2022/09/18 00:05:54;;;;;;;11.73;2.70;;;9.40;99.90;;;;;;5018096;28;20085;-73
2022/09/18 00:08:20;;;;;;;15.55;2.85;;;9.40;99.90;;;;;;5017945;28;20088;-74
2022/09/18 00:10:46;;;;;;;12.10;2.75;;;9.40;99.90;;;;;;5017815;28;20046;-74
2022/09/18 00:13:13;;;;;;;14.80;2.47;;;9.40;99.90;;;;;;5033660;28;20443;-74
2022/09/18 00:15:39;;;;;;;12.18;2.70;;;9.40;99.90;;;;;;5018568;28;20068;-74
2022/09/18 00:18:05;;;;;;;10.27;2.50;;;9.30;99.90;;;;;;5037438;28;20041;-73
2022/09/18 00:20:35;;;;;;;11.00;2.63;;;9.30;99.90;;;;;;5037613;28;20064;-75
2022/09/18 00:23:01;;;;;;;12.63;2.67;;;9.30;99.90;;;;;;5037791;28;20135;-73
2022/09/18 00:25:26;;;;;;;12.70;3.10;;;9.30;99.90;;;;;;5037643;28;20089;-73
2022/09/18 00:27:52;;;;;;;12.25;3.67;;;9.30;99.90;;;;;;5024503;28;20042;-74
2022/09/18 00:30:18;;;;;;;11.00;2.65;;;9.30;99.90;;;;;;5017735;28;20414;-73
2022/09/18 00:32:43;;;;;;;12.35;3.58;;;9.30;99.90;;;;;;5016827;28;20034;-72
2022/09/18 00:35:09;;;;;;;17.23;3.60;;;9.40;99.90;;;;;;5017417;28;20050;-74
2022/09/18 00:37:34;;;;;;;7.93;2.10;;;9.40;99.90;;;;;;5017036;28;20049;-73
2022/09/18 00:40:00;;;;;;;18.88;3.42;;;9.50;99.90;;;;;;5017260;28;20046;-74
2022/09/18 00:42:26;;;;;;;15.38;2.55;;;9.50;99.90;;;;;;5027328;28;20120;-73
2022/09/18 00:44:51;;;;;;;13.05;2.50;;;9.50;99.90;;;;;;5037212;28;20061;-75
2022/09/18 00:47:25;;;;;;;9.75;2.15;;;9.60;99.90;;;;;;5036948;28;20448;-72
2022/09/18 00:50:15;;;;;;;14.60;2.85;;;9.60;99.90;;;;;;5036935;28;20080;-73
2022/09/18 00:52:56;;;;;;;11.38;2.47;;;9.60;99.90;;;;;;5036825;28;20092;-72
2022/09/18 00:55:30;;;;;;;12.05;2.70;;;9.50;99.90;;;;;;5003063;28;20064;-72
2022/09/18 00:57:59;;;;;;;10.68;2.40;;;9.50;99.90;;;;;;5036484;28;20413;-72
2022/09/18 01:00:25;;;;;;;10.65;2.50;;;9.40;99.90;;;;;;5019080;28;20064;-73
2022/09/18 01:02:50;;;;;;;9.45;2.50;;;9.40;99.90;;;;;;5036769;28;20149;-74
2022/09/18 01:05:46;;;;;;;11.65;2.42;;;9.40;99.90;;;;;;5036708;28;20493;-74
2022/09/18 01:08:19;;;;;;;11.65;2.38;;;9.50;99.90;;;;;;5036194;28;20057;-73
2022/09/18 01:11:07;;;;;;;9.90;2.50;;;9.50;99.90;;;;;;5035736;28;20041;-72
2022/09/18 01:14:02;;;;;;;10.60;2.33;;;9.60;99.90;;;;;;5016702;28;20048;-73
2022/09/18 01:16:39;;;;;;;14.40;3.05;;;9.60;99.90;;;;;;5016569;28;20049;-74
2022/09/18 01:19:41;;;;;;;16.13;2.95;;;9.60;99.90;;;;;;4999343;28;20057;-74
2022/09/18 01:22:18;;;;;;;9.52;2.65;;;9.60;99.90;;;;;;4999607;28;20133;-74
2022/09/18 01:25:21;;;;;;;8.05;2.42;;;9.60;99.90;;;;;;4999602;28;20049;-75
2022/09/18 01:28:15;;;;;;;13.93;2.50;;;9.60;99.90;;;;;;5016048;28;20153;-74
2022/09/18 01:30:44;;;;;;;14.60;2.50;;;9.50;99.90;;;;;;4999456;28;20049;-73
2022/09/18 01:33:32;;;;;;;11.88;2.70;;;9.50;99.90;;;;;;5016517;28;20082;-76
2022/09/18 01:36:03;;;;;;;15.48;3.05;;;9.50;99.90;;;;;;5015810;28;20092;-74
2022/09/18 01:38:39;;;;;;;14.00;3.05;;;9.40;99.90;;;;;;5017508;28;20385;-74
2022/09/18 01:41:09;;;;;;;11.30;2.50;;;9.60;99.90;;;;;;5015934;28;20081;-73
2022/09/18 01:43:37;;;;;;;13.15;2.78;;;9.40;99.90;;;;;;5015343;28;20360;-72
2022/09/18 01:46:08;;;;;;;13.05;2.67;;;9.40;99.90;;;;;;4998539;28;20042;-74
2022/09/18 01:48:38;;;;;;;8.60;2.38;;;9.30;99.90;;;;;;5015999;28;20124;-74
2022/09/18 01:51:21;;;;;;;15.57;3.30;;;9.30;99.90;;;;;;5016051;28;20089;-74
2022/09/18 01:53:53;;;;;;;12.77;3.17;;;9.30;99.90;;;;;;5016087;28;20038;-74
2022/09/18 01:56:25;;;;;;;9.70;2.57;;;9.20;99.90;;;;;;5015918;28;20038;-73
2022/09/18 01:58:56;;;;;;;12.68;2.85;;;9.20;99.90;;;;;;4999080;28;20061;-72
2022/09/18 02:01:24;;;;;;;10.57;3.20;;;9.50;99.90;;;;;;4999015;28;20049;-73
2022/09/18 02:03:59;;;;;;;13.05;3.28;;;9.20;99.90;;;;;;5016001;28;20064;-73
2022/09/18 02:06:33;;;;;;;16.02;2.72;;;9.20;99.90;;;;;;5016172;28;20104;-74
2022/09/18 02:09:00;;;;;;;15.45;2.90;;;9.20;99.90;;;;;;5005305;28;20046;-73
2022/09/18 02:11:26;;;;;;;11.27;2.97;;;9.20;99.90;;;;;;5035203;28;20061;-74
2022/09/18 02:14:13;;;;;;;16.27;2.88;;;9.20;99.90;;;;;;5017849;28;20068;-72
2022/09/18 02:16:44;;;;;;;11.13;2.63;;;9.20;99.90;;;;;;5035472;28;20140;-75
2022/09/18 02:19:18;;;;;;;17.55;3.20;;;9.30;99.90;;;;;;5035269;28;20124;-74
2022/09/18 02:21:45;;;;;;;15.05;3.13;;;9.30;99.90;;;;;;5035088;28;20137;-72
2022/09/18 02:24:13;;;;;;;16.65;3.08;;;9.30;99.90;;;;;;5034565;28;20442;-74
2022/09/18 02:26:40;;;;;;;12.85;2.78;;;9.30;99.90;;;;;;5035552;28;20103;-73
2022/09/18 02:29:08;;;;;;;17.30;3.03;;;9.30;99.90;;;;;;5035210;28;20049;-74
2022/09/18 02:31:36;;;;;;;11.57;2.60;;;9.30;99.90;;;;;;5035414;28;20045;-74
2022/09/18 02:34:02;;;;;;;11.85;2.25;;;9.40;99.90;;;;;;5017844;28;20049;-73
2022/09/18 02:36:51;;;;;;;12.82;2.60;;;9.40;99.90;;;;;;5034934;28;20041;-73
2022/09/18 02:39:22;;;;;;;12.63;2.55;;;9.40;99.90;;;;;;5020710;28;20085;-72
2022/09/18 02:41:56;;;;;;;10.43;3.13;;;9.40;99.90;;;;;;5015160;28;20117;-72
2022/09/18 02:44:46;;;;;;;10.50;2.47;;;9.40;99.90;;;;;;5015122;28;20129;-73
2022/09/18 02:47:48;;;;;;;13.75;2.80;;;9.40;99.90;;;;;;4998223;28;20046;-75
2022/09/18 02:50:40;;;;;;;10.60;2.45;;;9.40;99.90;;;;;;5015028;28;20042;-74
2022/09/18 02:53:15;;;;;;;17.25;3.05;;;9.50;99.90;;;;;;5014927;28;20057;-74
2022/09/18 02:56:01;;;;;;;13.50;2.83;;;9.50;99.90;;;;;;5015015;28;20045;-75
2022/09/18 02:58:31;;;;;;;13.32;2.80;;;9.50;99.90;;;;;;5014872;28;20042;-73
2022/09/18 03:01:02;;;;;;;17.80;3.25;;;9.60;99.90;;;;;;5015074;28;20061;-72
2022/09/18 03:03:30;;;;;;;10.68;2.63;;;9.60;99.90;;;;;;5015038;28;20099;-75
2022/09/18 03:05:56;;;;;;;19.38;3.30;;;9.60;99.90;;;;;;5014881;28;20049;-74
2022/09/18 03:08:22;;;;;;;12.70;3.30;;;9.70;99.90;;;;;;5020859;28;20350;-73
2022/09/18 03:10:48;;;;;;;13.07;2.80;;;9.70;99.90;;;;;;5034380;28;20352;-74
2022/09/18 03:13:14;;;;;;;13.70;2.75;;;9.70;99.90;;;;;;5034903;28;20049;-73
2022/09/18 03:15:40;;;;;;;14.65;2.90;;;9.80;99.90;;;;;;5034777;28;20065;-75
2022/09/18 03:18:06;;;;;;;15.55;2.92;;;9.80;99.90;;;;;;5016999;28;20049;-73
2022/09/18 03:20:31;;;;;;;12.02;2.80;;;9.80;99.90;;;;;;5034966;28;20050;-72
2022/09/18 03:22:57;;;;;;;12.10;2.70;;;9.90;99.90;;;;;;5034486;28;20127;-74
2022/09/18 03:25:22;;;;;;;13.05;2.60;;;9.90;99.90;;;;;;5026891;28;20126;-73
2022/09/18 03:27:52;;;;;;;15.80;2.78;;;10.20;99.90;;;;;;5017407;28;20057;-71
2022/09/18 03:30:17;;;;;;;13.23;2.20;;;9.90;99.90;;;;;;5034412;28;20049;-73
2022/09/18 03:32:43;;;;;;;10.68;2.63;;;10.00;99.90;;;;;;5034822;28;20042;-72
2022/09/18 03:35:09;;;;;;;16.60;3.25;;;10.00;99.90;;;;;;5017774;28;20041;-75
2022/09/18 03:37:34;;;;;;;10.48;2.83;;;10.10;99.90;;;;;;5034918;28;20088;-72
2022/09/18 03:40:00;;;;;;;14.75;2.38;;;10.10;99.90;;;;;;5016901;28;20045;-73
2022/09/18 03:42:25;;;;;;;9.90;2.33;;;10.10;99.90;;;;;;5032355;28;20049;-72
2022/09/18 03:44:51;;;;;;;11.90;2.60;;;10.00;99.90;;;;;;5014750;28;20046;-74
2022/09/18 03:47:17;;;;;;;10.43;2.47;;;10.10;99.90;;;;;;4997276;28;20115;-73
2022/09/18 03:49:45;;;;;;;9.68;2.33;;;10.00;99.90;;;;;;5014712;28;20128;-72
2022/09/18 03:52:11;;;;;;;9.35;1.98;;;10.00;99.90;;;;;;5014637;28;20069;-77
2022/09/18 03:54:36;;;;;;;9.63;2.00;;;10.00;99.90;;;;;;5014445;28;20037;-75
2022/09/18 03:57:02;;;;;;;10.45;2.00;;;10.00;99.90;;;;;;4997153;28;20386;-74
2022/09/18 03:59:28;;;;;;;12.45;2.90;;;9.90;99.90;;;;;;5033990;28;20398;-74
2022/09/18 04:01:53;;;;;;;8.20;2.33;;;9.90;99.90;;;;;;5034307;28;20045;-73
2022/09/18 04:04:19;;;;;;;11.02;2.58;;;10.10;99.90;;;;;;5034080;28;20488;-74
2022/09/18 04:06:44;;;;;;;11.13;2.75;;;9.90;99.90;;;;;;5034823;28;20066;-74
2022/09/18 04:09:10;;;;;;;9.00;1.95;;;10.00;99.90;;;;;;5037902;28;20422;-73
2022/09/18 04:11:35;;;;;;;15.05;2.88;;;10.00;99.90;;;;;;5037711;28;20049;-74
2022/09/18 04:14:01;;;;;;;13.00;2.30;;;9.90;99.90;;;;;;5035007;28;20041;-74
2022/09/18 04:16:26;;;;;;;8.32;2.38;;;10.00;99.90;;;;;;5017572;28;20053;-73
2022/09/18 04:18:52;;;;;;;9.05;2.25;;;10.00;99.90;;;;;;5017395;28;20050;-74
2022/09/18 04:21:17;;;;;;;11.70;1.90;;;10.00;99.90;;;;;;5000424;28;20116;-74
2022/09/18 04:23:43;;;;;;;12.20;2.33;;;10.00;99.90;;;;;;5017894;28;20085;-75
2022/09/18 04:26:09;;;;;;;14.13;2.45;;;10.00;99.90;;;;;;5017853;28;20050;-74
2022/09/18 04:28:36;;;;;;;14.10;2.20;;;10.00;99.90;;;;;;5012435;28;20060;-74
2022/09/18 04:31:01;;;;;;;11.63;2.25;;;10.10;99.90;;;;;;5019762;28;20050;-75
2022/09/18 04:33:27;;;;;;;12.45;2.17;;;10.00;99.90;;;;;;5017541;28;20382;-74
2022/09/18 04:35:53;;;;;;;9.88;2.10;;;10.00;99.90;;;;;;5000273;28;20061;-76
2022/09/18 04:38:26;;;;;;;12.13;2.80;;;10.00;99.90;;;;;;5017524;28;20394;-74
2022/09/18 04:40:56;;;;;;;13.57;2.95;;;10.00;99.90;;;;;;5017257;28;20129;-72
2022/09/18 04:43:22;;;;;;;14.93;2.33;;;10.00;99.90;;;;;;5000038;28;20057;-75
2022/09/18 04:45:48;;;;;;;9.90;2.70;;;10.10;99.90;;;;;;5033948;28;20122;-74
2022/09/18 04:48:15;;;;;;;10.15;1.90;;;10.00;99.90;;;;;;5036727;28;20104;-73
2022/09/18 04:50:41;;;;;;;11.85;2.47;;;10.00;99.90;;;;;;5036950;28;20045;-73
2022/09/18 04:53:07;;;;;;;11.98;2.10;;;10.00;99.90;;;;;;5019388;28;20144;-75
2022/09/18 04:55:32;;;;;;;6.93;1.65;;;10.00;99.90;;;;;;5036916;28;20107;-74
2022/09/18 04:57:58;;;;;;;9.93;1.80;;;10.00;99.90;;;;;;5029640;28;20537;-75
2022/09/18 05:00:23;;;;;;;9.02;2.17;;;10.00;99.90;;;;;;5016789;28;20128;-74
2022/09/18 05:02:49;;;;;;;10.57;2.50;;;10.00;99.90;;;;;;5016730;28;20046;-73
2022/09/18 05:05:15;;;;;;;10.30;2.30;;;9.90;99.90;;;;;;5016721;28;20057;-74
2022/09/18 05:07:40;;;;;;;10.52;2.38;;;9.90;99.90;;;;;;5016844;28;20469;-74
2022/09/18 05:10:09;;;;;;;7.25;1.85;;;9.90;99.90;;;;;;5016933;28;20079;-73
2022/09/18 05:12:35;;;;;;;14.02;2.42;;;9.90;99.90;;;;;;4999111;28;20184;-74
2022/09/18 05:15:01;;;;;;;11.13;2.08;;;9.90;99.90;;;;;;5016295;28;20042;-76
2022/09/18 05:17:26;;;;;;;9.27;2.45;;;9.90;99.90;;;;;;5016095;28;20052;-75
2022/09/18 05:19:52;;;;;;;12.10;2.33;;;10.00;99.90;;;;;;5016710;28;20378;-73
2022/09/18 05:22:17;;;;;;;11.75;2.33;;;9.90;99.90;;;;;;4999274;28;20050;-73
2022/09/18 05:24:43;;;;;;;12.15;2.40;;;10.00;99.90;;;;;;5023857;28;20160;-73
2022/09/18 05:27:08;;;;;;;11.60;2.33;;;10.00;99.90;;;;;;4990983;28;20047;-75
2022/09/18 05:29:34;;;;;;;10.77;2.10;;;10.00;99.90;;;;;;5035549;28;20041;-73
2022/09/18 05:32:00;;;;;;;11.25;2.40;;;10.00;99.90;;;;;;5006416;28;20148;-73
2022/09/18 05:34:26;;;;;;;13.05;2.30;;;10.00;99.90;;;;;;5035142;28;20052;-76
2022/09/18 05:36:51;;;;;;;13.27;2.22;;;10.10;99.90;;;;;;5037829;28;20045;-74
2022/09/18 05:39:17;;;;;;;11.02;2.20;;;10.10;99.90;;;;;;5018252;28;20046;-73
2022/09/18 05:41:43;;;;;;;13.80;2.78;;;10.10;99.90;;;;;;5034575;28;20041;-74
2022/09/18 05:44:08;;;;;;;6.60;1.90;;;10.20;99.90;;;;;;5034838;28;20073;-74
2022/09/18 05:46:34;;;;;;;9.45;1.92;;;10.20;99.90;;;;;;5011051;28;20099;-73
2022/09/18 05:48:59;;;;;;;9.48;2.03;;;10.20;99.90;;;;;;5015410;28;20053;-74
2022/09/18 05:51:25;;;;;;;9.55;2.30;;;10.20;99.90;;;;;;5016912;28;20041;-74
2022/09/18 05:53:50;;;;;;;7.65;1.63;;;10.20;99.90;;;;;;4998848;28;20155;-74
2022/09/18 05:56:16;;;;;;;12.55;1.70;;;10.20;99.90;;;;;;5027071;28;20041;-74
2022/09/18 05:58:45;;;;;;;15.20;2.42;;;10.30;99.90;;;;;;5014816;28;20048;-77
2022/09/18 06:01:13;;;;;;;6.85;2.05;;;10.30;99.90;;;;;;4997953;28;20044;-74
2022/09/18 06:03:40;;;;;;;8.15;1.88;;;10.30;99.90;;;;;;5022634;28;20046;-77
2022/09/18 06:06:06;;;;;;;8.57;1.90;;;10.30;99.90;;;;;;5031170;28;20087;-75
2022/09/18 06:08:32;;;;;;;9.13;2.30;;;10.40;99.90;;;;;;5018195;28;20546;-77
2022/09/18 06:11:01;;;;;;;7.30;1.90;;;10.40;99.90;;;;;;5001689;28;20056;-76
2022/09/18 06:13:27;;;;;;;12.93;2.10;;;10.40;99.90;;;;;;5018556;28;20060;-74
2022/09/18 06:15:52;;;;;;;14.00;2.30;;;10.50;99.90;;;;;;5001247;28;20362;-77
2022/09/18 06:18:18;;;;;;;10.20;2.03;;;10.50;99.90;;;;;;5035323;28;20046;-73
2022/09/18 06:20:54;;;;;;;10.63;1.88;;;10.50;99.90;;;;;;5020215;28;20061;-74
2022/09/18 06:23:24;;;;;;;8.50;2.33;;;10.50;99.90;;;;;;4998167;28;20438;-72
2022/09/18 06:26:01;;;;;;;9.85;2.33;;;10.60;99.90;;;;;;5021212;28;20079;-75
2022/09/18 06:28:29;;;;;;;9.93;2.10;;;10.60;99.90;;;;;;5031957;28;20041;-75
2022/09/18 06:30:56;;;;;;;9.40;2.08;;;10.60;99.90;;;;;;5033620;28;20053;-74
2022/09/18 06:33:22;;;;;;;7.93;1.88;;;11.00;99.90;;;;;;5034910;28;20052;-73
2022/09/18 06:35:48;;;;;;;11.07;2.35;;;10.70;99.90;;;;;;5035002;28;20454;-73
2022/09/18 06:38:14;;;;;;;14.45;2.65;;;10.70;99.90;;;;;;5034882;28;20432;-75
2022/09/18 06:40:46;;;;;;;9.55;1.90;;;10.70;99.90;;;;;;5027613;28;20450;-73
2022/09/18 06:43:11;;;;;;;7.65;1.85;;;10.70;99.90;;;;;;5014916;28;20160;-73
2022/09/18 06:45:37;;;;;;;7.82;1.70;;;10.80;99.90;;;;;;5015350;28;20467;-73
2022/09/18 06:48:03;;;;;;;9.38;1.88;;;10.80;99.90;;;;;;5015412;28;20042;-76
2022/09/18 06:50:29;;;;;;;9.10;1.77;;;10.80;99.90;;;;;;5015296;28;20087;-73
2022/09/18 06:53:03;;;;;;;15.20;2.75;;;10.90;99.90;;;;;;5014896;28;20041;-73
2022/09/18 06:55:30;;;;;;;9.32;2.10;;;10.90;99.90;;;;;;5021330;28;20053;-74
2022/09/18 06:57:57;;;;;;;8.40;2.33;;;11.00;99.90;;;;;;5017733;28;20462;-73
2022/09/18 07:00:24;;;;;;;9.15;1.85;;;11.10;99.90;;;;;;5034873;28;20136;-73
2022/09/18 07:02:58;;;;;;;14.35;2.55;;;11.10;99.90;;;;;;5034385;28;20037;-73
2022/09/18 07:05:25;;;;;;;11.15;2.10;;;11.10;99.90;;;;;;5034545;28;20084;-70
2022/09/18 07:07:51;;;;;;;11.05;2.58;;;11.20;99.90;;;;;;5034513;28;20080;-73
2022/09/18 07:10:16;;;;;;;9.05;2.70;;;11.30;99.90;;;;;;5017037;28;20184;-73
2022/09/18 07:12:47;;;;;;;9.75;2.00;;;11.40;99.90;;;;;;5034538;28;20366;-72
2022/09/18 07:15:15;;;;;;;10.48;1.88;;;11.40;99.90;;;;;;5016876;28;20057;-75
2022/09/18 07:17:41;;;;;;;10.93;1.98;;;11.50;99.90;;;;;;5034432;28;20108;-74
2022/09/18 07:20:09;;;;;;;9.43;2.00;;;11.50;99.90;;;;;;5034483;28;20064;-73
2022/09/18 07:22:35;;;;;;;13.07;2.20;;;11.50;99.90;;;;;;5034444;28;20100;-74
2022/09/18 07:25:00;;;;;;;7.80;2.03;;;11.50;99.90;;;;;;5029357;28;20050;-75
2022/09/18 07:27:27;;;;;;;8.02;1.90;;;11.60;99.90;;;;;;5022421;28;20100;-74
2022/09/18 07:29:53;;;;;;;7.85;2.05;;;11.50;99.90;;;;;;5017315;28;20069;-74
2022/09/18 07:32:20;;;;;;;9.52;1.90;;;11.50;99.90;;;;;;5034434;28;20050;-75
2022/09/18 07:34:46;;;;;;;8.23;2.17;;;11.50;99.90;;;;;;5017376;28;20103;-74
2022/09/18 07:37:12;;;;;;;10.73;2.10;;;11.50;99.90;;;;;;5034159;28;20037;-74
2022/09/18 07:39:37;;;;;;;10.05;1.80;;;11.50;99.90;;;;;;5034384;28;20083;-74
2022/09/18 07:42:03;;;;;;;11.25;2.30;;;11.50;99.90;;;;;;5036132;28;20049;-74
2022/09/18 07:44:33;;;;;;;11.30;2.22;;;11.50;99.90;;;;;;5038171;28;20112;-75
2022/09/18 07:46:58;;;;;;;7.63;2.17;;;11.50;99.90;;;;;;5038059;28;20064;-74
2022/09/18 07:49:24;;;;;;;10.63;1.77;;;11.50;99.90;;;;;;5037737;28;20370;-75
2022/09/18 07:51:50;;;;;;;10.73;2.30;;;11.40;99.90;;;;;;5037805;28;20057;-74
2022/09/18 07:54:15;;;;;;;8.27;2.45;;;11.40;99.90;;;;;;5036682;28;20378;-75
2022/09/18 07:56:41;;;;;;;12.05;2.42;;;11.40;99.90;;;;;;5018118;28;20034;-74
2022/09/18 07:59:07;;;;;;;7.85;1.90;;;11.40;99.90;;;;;;5000810;28;20052;-74
2022/09/18 08:01:33;;;;;;;8.48;2.10;;;11.40;99.90;;;;;;5017839;28;20042;-75
2022/09/18 08:04:00;;;;;;;9.13;2.00;;;11.40;99.90;;;;;;5018678;28;20065;-74
2022/09/18 08:06:26;;;;;;;8.38;1.90;;;11.30;99.90;;;;;;5017763;28;20075;-75
2022/09/18 08:08:52;;;;;;;9.05;2.05;;;11.30;99.90;;;;;;5017659;28;20133;-74
2022/09/18 08:11:17;;;;;;;7.32;2.05;;;11.30;99.90;;;;;;5017986;28;20120;-75
2022/09/18 08:13:43;;;;;;;9.80;2.47;;;11.30;99.90;;;;;;5000773;28;20045;-73
2022/09/18 08:16:09;;;;;;;8.05;1.90;;;11.40;99.90;;;;;;5017866;28;20053;-74
2022/09/18 08:18:37;;;;;;;11.68;2.10;;;11.40;99.90;;;;;;5017209;28;20541;-73
2022/09/18 08:21:03;;;;;;;12.95;2.55;;;11.40;99.90;;;;;;5017879;28;20060;-73
2022/09/18 08:23:28;;;;;;;7.40;2.00;;;11.40;99.90;;;;;;5017922;28;20057;-74
2022/09/18 08:25:54;;;;;;;7.70;2.05;;;11.50;99.90;;;;;;5031331;28;20049;-74
2022/09/18 08:28:20;;;;;;;11.02;2.83;;;11.50;99.90;;;;;;5037499;28;20141;-75
2022/09/18 08:30:45;;;;;;;10.60;2.83;;;11.50;99.90;;;;;;5019853;28;20053;-75
2022/09/18 08:33:11;;;;;;;9.50;2.53;;;11.50;99.90;;;;;;5037274;28;20127;-76
2022/09/18 08:35:36;;;;;;;9.50;2.85;;;11.50;99.90;;;;;;5037109;28;20081;-75
2022/09/18 08:38:02;;;;;;;8.88;2.53;;;11.50;99.90;;;;;;5037050;28;20064;-76
2022/09/18 08:40:47;;;;;;;10.80;2.50;;;11.40;99.90;;;;;;5036297;28;20056;-75
2022/09/18 08:44:02;;;;;;;8.88;2.35;;;11.40;99.90;;;;;;5036979;28;20386;-74
2022/09/18 08:47:03;;;;;;;6.93;1.95;;;11.50;99.90;;;;;;5033314;28;20053;-74
2022/09/18 08:49:40;;;;;;;9.93;2.15;;;11.40;99.90;;;;;;5005426;28;20196;-76
2022/09/18 08:52:14;;;;;;;10.02;2.47;;;11.40;99.90;;;;;;5036459;28;20080;-73
2022/09/18 08:55:01;;;;;;;10.32;3.65;;;11.40;99.90;;;;;;4999380;28;20053;-73
2022/09/18 08:57:29;;;;;;;9.10;2.83;;;11.40;99.90;;;;;;4999685;28;20049;-74
2022/09/18 09:00:00;;;;;;;9.70;2.40;;;11.40;99.90;;;;;;5027237;28;20066;-75
2022/09/18 09:02:55;;;;;;;7.00;2.30;;;11.40;99.90;;;;;;5017452;28;20045;-75
2022/09/18 09:05:26;;;;;;;11.25;4.68;;;11.40;99.90;;;;;;5007225;28;20068;-74
2022/09/18 09:08:16;;;;;;;5.88;1.90;;;11.40;99.90;;;;;;5019622;28;20080;-78
2022/09/18 09:11:13;;;;;;;8.95;2.38;;;11.50;99.90;;;;;;5036479;28;20521;-75
2022/09/18 09:14:00;;;;;;;7.55;2.40;;;11.50;99.90;;;;;;5018396;28;20076;-74
2022/09/18 09:16:38;;;;;;;7.82;2.95;;;11.50;99.90;;;;;;5036609;28;20049;-73
2022/09/18 09:19:53;;;;;;;6.40;2.40;;;11.50;99.90;;;;;;5036080;28;20063;-75
2022/09/18 09:22:26;;;;;;;11.48;3.63;;;11.50;99.90;;;;;;4959439;28;20047;-72
2022/09/18 09:25:14;;;;;;;16.13;4.68;;;11.50;99.90;;;;;;5009501;28;20053;-76
2022/09/18 09:27:52;;;;;;;9.73;3.30;;;11.50;99.90;;;;;;5032977;28;20156;-73
2022/09/18 09:30:19;;;;;;;13.45;4.28;;;11.40;99.90;;;;;;5035991;28;20179;-73
2022/09/18 09:33:02;;;;;;;8.80;2.25;;;11.40;99.90;;;;;;5034139;28;20038;-74
2022/09/18 09:35:36;;;;;;;7.97;1.98;;;11.30;99.90;;;;;;5035178;28;20057;-76
2022/09/18 09:38:19;;;;;;;12.35;2.83;;;11.30;99.90;;;;;;5036196;28;20075;-73
2022/09/18 09:40:49;;;;;;;7.88;2.35;;;11.30;99.90;;;;;;5035789;28;20045;-75
2022/09/18 09:43:53;;;;;;;6.05;1.88;;;11.30;99.90;;;;;;5020724;28;20052;-75
2022/09/18 09:46:46;;;;;;;8.20;2.17;;;11.30;99.90;;;;;;5017054;28;20045;-75
2022/09/18 09:49:47;;;;;;;6.78;1.73;;;11.30;99.90;;;;;;5020024;28;20056;-76
2022/09/18 09:52:21;;;;;;;8.07;2.30;;;11.30;99.90;;;;;;4989431;28;20132;-76
2022/09/18 09:54:59;;;;;;;10.15;2.13;;;11.40;99.90;;;;;;5036266;28;20342;-78
2022/09/18 09:57:28;;;;;;;11.15;2.13;;;11.40;99.90;;;;;;5018765;28;20081;-75
2022/09/18 10:00:14;;;;;;;11.18;2.40;;;11.50;99.90;;;;;;5035305;28;20045;-77
2022/09/18 10:03:19;;;;;;;11.52;2.42;;;11.60;99.90;;;;;;5035659;28;20207;-77
2022/09/18 10:06:10;;;;;;;10.13;2.13;;;11.60;99.90;;;;;;5032089;28;20057;-78
2022/09/18 10:09:04;;;;;;;8.82;1.83;;;11.70;99.90;;;;;;5034868;28;20114;-76
2022/09/18 10:11:34;;;;;;;10.98;2.05;;;11.70;99.90;;;;;;5035130;28;20045;-76
2022/09/18 10:14:19;;;;;;;8.73;2.40;;;11.80;99.90;;;;;;5008044;28;20129;-76
2022/09/18 10:16:49;;;;;;;8.57;1.60;;;11.80;99.90;;;;;;5015585;28;20046;-76
2022/09/18 10:19:18;;;;;;;8.43;2.17;;;11.90;99.90;;;;;;4997901;28;20096;-76
2022/09/18 10:21:45;;;;;;;11.38;2.30;;;11.90;99.90;;;;;;5015277;28;20073;-77
2022/09/18 10:24:20;;;;;;;9.75;2.00;;;12.00;99.90;;;;;;5015352;28;20050;-76
2022/09/18 10:27:09;;;;;;;9.60;2.03;;;12.10;99.90;;;;;;5015519;28;20069;-74
2022/09/18 10:29:34;;;;;;;6.50;1.70;;;12.20;99.90;;;;;;5015314;28;20472;-77
2022/09/18 10:32:00;;;;;;;9.30;1.77;;;12.20;99.90;;;;;;5015187;28;20058;-76
2022/09/18 10:34:48;;;;;;;8.65;1.88;;;12.20;99.90;;;;;;5015181;28;20045;-75
2022/09/18 10:37:27;;;;;;;7.40;1.90;;;12.30;99.90;;;;;;4998555;28;20145;-75
2022/09/18 10:39:56;;;;;;;7.65;1.85;;;12.30;99.90;;;;;;4998104;28;20112;-77
2022/09/18 10:42:24;;;;;;;11.88;2.15;;;12.30;99.90;;;;;;4998030;28;20061;-75
2022/09/18 10:45:02;;;;;;;7.53;1.80;;;12.40;99.90;;;;;;5034784;28;20061;-76
2022/09/18 10:47:30;;;;;;;12.88;2.70;;;12.50;99.90;;;;;;5035001;28;20037;-75
2022/09/18 10:50:08;;;;;;;9.65;3.13;;;12.60;99.90;;;;;;5035086;28;20068;-77
2022/09/18 10:52:41;;;;;;;10.35;2.65;;;12.70;99.90;;;;;;5017158;28;20053;-76
2022/09/18 10:55:14;;;;;;;8.32;2.35;;;12.80;99.90;;;;;;5034618;28;20049;-73
2022/09/18 10:58:01;;;;;;;10.35;2.28;;;12.80;99.90;;;;;;5034869;28;20084;-74
2022/09/18 11:00:33;;;;;;;13.02;2.00;;;12.70;99.90;;;;;;5022852;28;20467;-75
2022/09/18 11:03:19;;;;;;;10.23;2.13;;;12.80;99.90;;;;;;5016979;28;20137;-75
2022/09/18 11:05:57;;;;;;;14.35;2.30;;;12.90;99.90;;;;;;5029331;28;20049;-74
2022/09/18 11:08:30;;;;;;;10.75;2.35;;;13.00;99.90;;;;;;5031266;28;20042;-77
2022/09/18 11:11:12;;;;;;;12.15;2.03;;;13.00;99.90;;;;;;5014484;28;20045;-76
2022/09/18 11:13:47;;;;;;;13.07;2.60;;;13.20;99.90;;;;;;5014479;28;20042;-74
2022/09/18 11:16:21;;;;;;;9.65;2.15;;;13.20;99.90;;;;;;5015768;28;20054;-74
2022/09/18 11:19:04;;;;;;;10.80;2.50;;;13.30;99.90;;;;;;5018782;28;20050;-76
2022/09/18 11:21:30;;;;;;;7.18;2.03;;;13.40;99.90;;;;;;5035233;28;20060;-75
2022/09/18 11:24:04;;;;;;;12.48;2.28;;;13.70;99.90;;;;;;5038496;28;20095;-77
2022/09/18 11:26:30;;;;;;;8.43;2.40;;;13.70;99.90;;;;;;5021317;28;20045;-78
2022/09/18 11:29:26;;;;;;;12.05;2.22;;;13.80;99.90;;;;;;5020825;28;20133;-77
2022/09/18 11:31:57;;;;;;;11.93;1.77;;;13.90;99.90;;;;;;5038347;28;20388;-75
2022/09/18 11:34:36;;;;;;;12.48;2.30;;;14.00;99.90;;;;;;5036464;28;20122;-78
2022/09/18 11:37:05;;;;;;;13.55;2.15;;;14.10;99.90;;;;;;5037182;28;20124;-76
2022/09/18 11:39:48;;;;;;;9.52;2.20;;;14.30;99.90;;;;;;5017639;28;20053;-77
2022/09/18 11:42:16;;;;;;;11.55;2.80;;;14.20;99.90;;;;;;5034103;28;20038;-77
2022/09/18 11:44:43;;;;;;;10.30;2.35;;;14.30;99.90;;;;;;5037567;28;20041;-79
2022/09/18 11:47:32;;;;;;;13.20;2.30;;;14.60;99.90;;;;;;5034721;28;20445;-77
2022/09/18 11:50:20;;;;;;;12.40;2.60;;;14.50;99.90;;;;;;5049554;28;20059;-77
2022/09/18 11:52:45;;;;;;;13.00;2.63;;;14.60;99.90;;;;;;5052295;28;20125;-75
2022/09/18 11:55:32;;;;;;;11.10;2.75;;;14.70;99.90;;;;;;5033296;28;20548;-75
2022/09/18 11:58:13;;;;;;;10.43;2.63;;;14.80;99.90;;;;;;5037490;28;20049;-74
2022/09/18 12:00:47;;;;;;;11.27;2.47;;;14.80;99.90;;;;;;5037939;28;20398;-73
2022/09/18 12:03:32;;;;;;;9.60;2.50;;;14.80;99.90;;;;;;5003846;28;20117;-74
2022/09/18 12:06:05;;;;;;;12.35;2.47;;;14.80;99.90;;;;;;5036681;28;20121;-74
2022/09/18 12:08:52;;;;;;;13.38;2.88;;;14.80;99.90;;;;;;5020090;28;20095;-73
2022/09/18 12:11:39;;;;;;;10.52;2.53;;;14.80;99.90;;;;;;5031524;28;20048;-72
2022/09/18 12:14:35;;;;;;;11.13;3.08;;;14.80;99.90;;;;;;5036411;28;20033;-76
2022/09/18 12:17:10;;;;;;;10.80;2.63;;;14.80;99.90;;;;;;5037201;28;20111;-76
2022/09/18 12:19:49;;;;;;;9.63;2.70;;;14.80;99.90;;;;;;5019204;28;20049;-76
2022/09/18 12:22:26;;;;;;;17.15;4.20;;;14.80;99.90;;;;;;5032342;28;20561;-76
2022/09/18 12:24:52;;;;;;;10.52;2.55;;;14.80;99.90;;;;;;5035545;28;20053;-75
2022/09/18 12:27:58;;;;;;;10.85;3.25;;;14.70;99.90;;;;;;5018627;28;20410;-77
2022/09/18 12:30:33;;;;;;;11.98;2.95;;;14.80;99.90;;;;;;5037269;28;20063;-77
2022/09/18 12:33:16;;;;;;;9.73;2.10;;;14.80;99.90;;;;;;5019261;28;20038;-77
2022/09/18 12:35:48;;;;;;;9.00;2.03;;;14.90;99.90;;;;;;5019096;28;20060;-77
2022/09/18 12:38:19;;;;;;;10.65;2.30;;;14.90;99.90;;;;;;5036914;28;20053;-77
2022/09/18 12:41:13;;;;;;;17.05;2.97;;;15.00;99.90;;;;;;5036408;28;20044;-75
2022/09/18 12:44:01;;;;;;;8.10;2.17;;;14.90;99.90;;;;;;5036678;28;20061;-78
2022/09/18 12:46:42;;;;;;;9.32;2.28;;;15.10;99.90;;;;;;5036158;28;20129;-74
2022/09/18 12:49:31;;;;;;;9.80;2.33;;;15.10;99.90;;;;;;5036779;28;20037;-73
2022/09/18 12:52:34;;;;;;;12.68;2.10;;;15.20;99.90;;;;;;5036805;28;20056;-73
2022/09/18 12:55:36;;;;;;;13.32;2.13;;;15.20;99.90;;;;;;5036839;28;20339;-78
2022/09/18 12:58:23;;;;;;;8.25;2.28;;;15.10;99.90;;;;;;4995925;28;20447;-76
2022/09/18 13:00:51;;;;;;;10.23;2.08;;;15.00;99.90;;;;;;5035481;28;20540;-74
2022/09/18 13:03:32;;;;;;;11.90;2.58;;;14.90;99.90;;;;;;5002913;28;20049;-76
2022/09/18 13:06:05;;;;;;;8.90;2.13;;;14.90;99.90;;;;;;4990516;28;20159;-73
2022/09/18 13:08:49;;;;;;;8.50;2.00;;;14.80;99.90;;;;;;5018414;28;20049;-75
2022/09/18 13:11:40;;;;;;;10.43;2.00;;;14.80;99.90;;;;;;5036384;28;20120;-77